sensor_id;sensor_type;location;lat;lon;timestamp;P1;durP1;ratioP1;P2;durP2;ratioP2
11054;SDS011;5580;50.106;8.702;2024-02-04T00:00:23;1.90;;;1.80;;
11054;SDS011;5580;50.106;8.702;2024-02-04T00:02:49;2.73;;;1.93;;
11054;SDS011;5580;50.106;8.702;2024-02-04T00:05:15;2.33;;;2.13;;
11054;SDS011;5580;50.106;8.702;2024-02-04T00:07:41;1.87;;;1.77;;
11054;SDS011;5580;50.106;8.702;2024-02-04T00:10:06;2.20;;;2.00;;
11054;SDS011;5580;50.106;8.702;2024-02-04T00:12:32;3.60;;;1.93;;
11054;SDS011;5580;50.106;8.702;2024-02-04T00:14:58;1.70;;;1.60;;
11054;SDS011;5580;50.106;8.702;2024-02-04T00:17:23;2.10;;;1.83;;
11054;SDS011;5580;50.106;8.702;2024-02-04T00:19:54;1.80;;;1.70;;
11054;SDS011;5580;50.106;8.702;2024-02-04T00:22:21;2.37;;;2.07;;
11054;SDS011;5580;50.106;8.702;2024-02-04T00:24:47;2.30;;;2.10;;
11054;SDS011;5580;50.106;8.702;2024-02-04T00:27:12;2.33;;;2.13;;
11054;SDS011;5580;50.106;8.702;2024-02-04T00:29:38;2.40;;;1.93;;
11054;SDS011;5580;50.106;8.702;2024-02-04T00:32:03;2.77;;;2.30;;
11054;SDS011;5580;50.106;8.702;2024-02-04T00:34:29;2.33;;;2.17;;
11054;SDS011;5580;50.106;8.702;2024-02-04T00:36:55;1.90;;;1.80;;
11054;SDS011;5580;50.106;8.702;2024-02-04T00:39:20;2.17;;;2.03;;
11054;SDS011;5580;50.106;8.702;2024-02-04T00:41:46;2.43;;;2.23;;
11054;SDS011;5580;50.106;8.702;2024-02-04T00:44:11;2.40;;;2.20;;
11054;SDS011;5580;50.106;8.702;2024-02-04T00:46:37;2.80;;;2.13;;
11054;SDS011;5580;50.106;8.702;2024-02-04T00:49:02;1.93;;;1.83;;
11054;SDS011;5580;50.106;8.702;2024-02-04T00:51:28;3.10;;;2.33;;
11054;SDS011;5580;50.106;8.702;2024-02-04T00:53:54;1.90;;;1.80;;
11054;SDS011;5580;50.106;8.702;2024-02-04T00:56:19;2.83;;;2.30;;
11054;SDS011;5580;50.106;8.702;2024-02-04T00:58:45;2.20;;;2.00;;
11054;SDS011;5580;50.106;8.702;2024-02-04T01:01:10;2.20;;;2.00;;
11054;SDS011;5580;50.106;8.702;2024-02-04T01:03:36;2.50;;;2.30;;
11054;SDS011;5580;50.106;8.702;2024-02-04T01:06:02;2.17;;;1.90;;
11054;SDS011;5580;50.106;8.702;2024-02-04T01:08:27;2.30;;;2.20;;
11054;SDS011;5580;50.106;8.702;2024-02-04T01:10:53;2.03;;;1.83;;
11054;SDS011;5580;50.106;8.702;2024-02-04T01:13:19;1.93;;;1.83;;
11054;SDS011;5580;50.106;8.702;2024-02-04T01:15:44;1.97;;;1.73;;
11054;SDS011;5580;50.106;8.702;2024-02-04T01:18:10;1.80;;;1.70;;
11054;SDS011;5580;50.106;8.702;2024-02-04T01:20:35;2.30;;;1.47;;
11054;SDS011;5580;50.106;8.702;2024-02-04T01:23:01;1.63;;;1.53;;
11054;SDS011;5580;50.106;8.702;2024-02-04T01:25:27;1.70;;;1.60;;
11054;SDS011;5580;50.106;8.702;2024-02-04T01:27:52;1.80;;;1.70;;
11054;SDS011;5580;50.106;8.702;2024-02-04T01:30:18;1.60;;;1.47;;
11054;SDS011;5580;50.106;8.702;2024-02-04T01:32:43;1.77;;;1.67;;
11054;SDS011;5580;50.106;8.702;2024-02-04T01:35:10;1.70;;;1.60;;
11054;SDS011;5580;50.106;8.702;2024-02-04T01:37:35;1.93;;;1.83;;
11054;SDS011;5580;50.106;8.702;2024-02-04T01:40:01;1.80;;;1.27;;
11054;SDS011;5580;50.106;8.702;2024-02-04T01:42:26;1.93;;;1.73;;
11054;SDS011;5580;50.106;8.702;2024-02-04T01:44:52;1.67;;;1.57;;
11054;SDS011;5580;50.106;8.702;2024-02-04T01:47:18;2.90;;;2.00;;
11054;SDS011;5580;50.106;8.702;2024-02-04T01:49:45;1.87;;;1.43;;
11054;SDS011;5580;50.106;8.702;2024-02-04T01:52:10;1.13;;;1.13;;
11054;SDS011;5580;50.106;8.702;2024-02-04T01:54:38;2.60;;;1.67;;
11054;SDS011;5580;50.106;8.702;2024-02-04T01:57:06;1.50;;;1.40;;
11054;SDS011;5580;50.106;8.702;2024-02-04T01:59:34;1.90;;;1.60;;
11054;SDS011;5580;50.106;8.702;2024-02-04T02:02:00;1.47;;;1.37;;
11054;SDS011;5580;50.106;8.702;2024-02-04T02:04:26;1.13;;;1.03;;
11054;SDS011;5580;50.106;8.702;2024-02-04T02:06:53;1.97;;;1.70;;
11054;SDS011;5580;50.106;8.702;2024-02-04T02:09:19;1.53;;;1.10;;
11054;SDS011;5580;50.106;8.702;2024-02-04T02:14:18;1.60;;;1.50;;
11054;SDS011;5580;50.106;8.702;2024-02-04T02:16:48;1.00;;;1.00;;
11054;SDS011;5580;50.106;8.702;2024-02-04T02:22:06;1.30;;;1.30;;
11054;SDS011;5580;50.106;8.702;2024-02-04T02:25:00;1.47;;;1.37;;
11054;SDS011;5580;50.106;8.702;2024-02-04T02:27:29;1.77;;;1.67;;
11054;SDS011;5580;50.106;8.702;2024-02-04T02:29:55;2.30;;;2.13;;
11054;SDS011;5580;50.106;8.702;2024-02-04T02:32:21;2.30;;;1.60;;
11054;SDS011;5580;50.106;8.702;2024-02-04T02:34:47;1.43;;;1.40;;
11054;SDS011;5580;50.106;8.702;2024-02-04T02:37:16;1.20;;;1.20;;
11054;SDS011;5580;50.106;8.702;2024-02-04T02:42:40;1.67;;;1.57;;
11054;SDS011;5580;50.106;8.702;2024-02-04T02:45:08;1.83;;;1.73;;
11054;SDS011;5580;50.106;8.702;2024-02-04T02:47:36;1.67;;;1.57;;
11054;SDS011;5580;50.106;8.702;2024-02-04T02:50:04;2.00;;;1.90;;
11054;SDS011;5580;50.106;8.702;2024-02-04T02:52:30;1.80;;;1.70;;
11054;SDS011;5580;50.106;8.702;2024-02-04T02:54:56;1.97;;;1.87;;
11054;SDS011;5580;50.106;8.702;2024-02-04T02:57:22;2.10;;;2.00;;
11054;SDS011;5580;50.106;8.702;2024-02-04T02:59:47;1.60;;;1.50;;
11054;SDS011;5580;50.106;8.702;2024-02-04T03:02:13;2.53;;;2.27;;
11054;SDS011;5580;50.106;8.702;2024-02-04T03:04:39;2.33;;;2.13;;
11054;SDS011;5580;50.106;8.702;2024-02-04T03:07:04;2.57;;;1.90;;
11054;SDS011;5580;50.106;8.702;2024-02-04T03:09:31;2.20;;;2.00;;
11054;SDS011;5580;50.106;8.702;2024-02-04T03:11:57;2.93;;;2.10;;
11054;SDS011;5580;50.106;8.702;2024-02-04T03:14:22;2.30;;;2.10;;
11054;SDS011;5580;50.106;8.702;2024-02-04T03:16:48;2.53;;;2.23;;
11054;SDS011;5580;50.106;8.702;2024-02-04T03:19:13;1.70;;;1.60;;
11054;SDS011;5580;50.106;8.702;2024-02-04T03:21:39;2.33;;;2.13;;
11054;SDS011;5580;50.106;8.702;2024-02-04T03:24:04;2.37;;;2.27;;
11054;SDS011;5580;50.106;8.702;2024-02-04T03:26:30;2.43;;;2.23;;
11054;SDS011;5580;50.106;8.702;2024-02-04T03:28:56;2.40;;;2.27;;
11054;SDS011;5580;50.106;8.702;2024-02-04T03:31:22;2.87;;;2.30;;
11054;SDS011;5580;50.106;8.702;2024-02-04T03:33:48;3.00;;;2.70;;
11054;SDS011;5580;50.106;8.702;2024-02-04T03:36:21;3.20;;;2.07;;
11054;SDS011;5580;50.106;8.702;2024-02-04T03:38:48;2.63;;;2.43;;
11054;SDS011;5580;50.106;8.702;2024-02-04T03:41:14;2.10;;;1.90;;
11054;SDS011;5580;50.106;8.702;2024-02-04T03:43:40;3.80;;;2.17;;
11054;SDS011;5580;50.106;8.702;2024-02-04T03:46:05;2.57;;;2.37;;
11054;SDS011;5580;50.106;8.702;2024-02-04T03:48:31;2.10;;;2.00;;
11054;SDS011;5580;50.106;8.702;2024-02-04T03:50:57;2.40;;;2.20;;
11054;SDS011;5580;50.106;8.702;2024-02-04T03:53:23;2.83;;;2.30;;
11054;SDS011;5580;50.106;8.702;2024-02-04T03:55:50;3.60;;;1.90;;
11054;SDS011;5580;50.106;8.702;2024-02-04T03:58:15;2.30;;;2.10;;
11054;SDS011;5580;50.106;8.702;2024-02-04T04:00:41;2.27;;;2.07;;
11054;SDS011;5580;50.106;8.702;2024-02-04T04:03:06;2.50;;;2.20;;
11054;SDS011;5580;50.106;8.702;2024-02-04T04:05:32;3.00;;;2.27;;
11054;SDS011;5580;50.106;8.702;2024-02-04T04:07:58;3.13;;;2.37;;
11054;SDS011;5580;50.106;8.702;2024-02-04T04:10:23;2.33;;;2.20;;
11054;SDS011;5580;50.106;8.702;2024-02-04T04:12:49;2.40;;;2.20;;
11054;SDS011;5580;50.106;8.702;2024-02-04T04:15:14;2.03;;;1.93;;
11054;SDS011;5580;50.106;8.702;2024-02-04T04:17:40;2.57;;;2.37;;
11054;SDS011;5580;50.106;8.702;2024-02-04T04:20:06;2.37;;;2.17;;
11054;SDS011;5580;50.106;8.702;2024-02-04T04:22:32;2.20;;;2.10;;
11054;SDS011;5580;50.106;8.702;2024-02-04T04:24:58;2.30;;;2.10;;
11054;SDS011;5580;50.106;8.702;2024-02-04T04:27:23;2.40;;;2.30;;
11054;SDS011;5580;50.106;8.702;2024-02-04T04:29:49;1.87;;;1.77;;
11054;SDS011;5580;50.106;8.702;2024-02-04T04:32:15;2.37;;;1.90;;
11054;SDS011;5580;50.106;8.702;2024-02-04T04:34:40;2.17;;;1.97;;
11054;SDS011;5580;50.106;8.702;2024-02-04T04:37:06;2.27;;;2.07;;
11054;SDS011;5580;50.106;8.702;2024-02-04T04:39:31;2.43;;;2.13;;
11054;SDS011;5580;50.106;8.702;2024-02-04T04:41:57;2.43;;;2.23;;
11054;SDS011;5580;50.106;8.702;2024-02-04T04:44:23;2.10;;;1.80;;
11054;SDS011;5580;50.106;8.702;2024-02-04T04:46:48;3.00;;;2.00;;
11054;SDS011;5580;50.106;8.702;2024-02-04T04:49:14;1.93;;;1.83;;
11054;SDS011;5580;50.106;8.702;2024-02-04T04:51:43;1.70;;;1.60;;
11054;SDS011;5580;50.106;8.702;2024-02-04T04:54:10;1.93;;;1.73;;
11054;SDS011;5580;50.106;8.702;2024-02-04T04:56:39;1.97;;;1.87;;
11054;SDS011;5580;50.106;8.702;2024-02-04T04:59:09;2.13;;;1.93;;
11054;SDS011;5580;50.106;8.702;2024-02-04T05:01:34;1.83;;;1.70;;
11054;SDS011;5580;50.106;8.702;2024-02-04T05:04:00;1.77;;;1.60;;
11054;SDS011;5580;50.106;8.702;2024-02-04T05:06:26;3.37;;;1.70;;
11054;SDS011;5580;50.106;8.702;2024-02-04T05:08:52;1.60;;;1.50;;
11054;SDS011;5580;50.106;8.702;2024-02-04T05:11:17;1.93;;;1.70;;
11054;SDS011;5580;50.106;8.702;2024-02-04T05:13:43;1.47;;;1.40;;
11054;SDS011;5580;50.106;8.702;2024-02-04T05:16:08;2.93;;;1.80;;
11054;SDS011;5580;50.106;8.702;2024-02-04T05:18:34;1.57;;;1.27;;
11054;SDS011;5580;50.106;8.702;2024-02-04T05:21:02;1.23;;;1.20;;
11054;SDS011;5580;50.106;8.702;2024-02-04T05:23:28;1.83;;;1.20;;
11054;SDS011;5580;50.106;8.702;2024-02-04T05:25:54;1.27;;;1.17;;
11054;SDS011;5580;50.106;8.702;2024-02-04T05:28:19;1.90;;;1.30;;
11054;SDS011;5580;50.106;8.702;2024-02-04T05:30:45;1.33;;;1.23;;
11054;SDS011;5580;50.106;8.702;2024-02-04T05:33:13;1.30;;;1.20;;
11054;SDS011;5580;50.106;8.702;2024-02-04T05:35:39;1.30;;;1.20;;
11054;SDS011;5580;50.106;8.702;2024-02-04T05:38:07;1.10;;;1.10;;
11054;SDS011;5580;50.106;8.702;2024-02-04T05:40:34;2.83;;;1.50;;
11054;SDS011;5580;50.106;8.702;2024-02-04T05:43:00;1.20;;;1.20;;
11054;SDS011;5580;50.106;8.702;2024-02-04T05:45:30;1.30;;;1.30;;
11054;SDS011;5580;50.106;8.702;2024-02-04T05:47:56;1.87;;;1.10;;
11054;SDS011;5580;50.106;8.702;2024-02-04T05:50:22;1.20;;;0.90;;
11054;SDS011;5580;50.106;8.702;2024-02-04T05:52:47;1.13;;;1.13;;
11054;SDS011;5580;50.106;8.702;2024-02-04T05:55:13;1.30;;;1.20;;
11054;SDS011;5580;50.106;8.702;2024-02-04T05:57:39;1.63;;;0.90;;
11054;SDS011;5580;50.106;8.702;2024-02-04T06:00:05;3.30;;;1.13;;
11054;SDS011;5580;50.106;8.702;2024-02-04T06:02:32;0.80;;;0.80;;
11054;SDS011;5580;50.106;8.702;2024-02-04T06:04:58;1.27;;;0.80;;
11054;SDS011;5580;50.106;8.702;2024-02-04T06:07:24;0.67;;;0.67;;
11054;SDS011;5580;50.106;8.702;2024-02-04T06:09:49;0.80;;;0.80;;
11054;SDS011;5580;50.106;8.702;2024-02-04T06:12:15;2.10;;;1.13;;
11054;SDS011;5580;50.106;8.702;2024-02-04T06:14:40;1.00;;;0.90;;
11054;SDS011;5580;50.106;8.702;2024-02-04T06:17:06;1.60;;;1.20;;
11054;SDS011;5580;50.106;8.702;2024-02-04T06:19:33;0.87;;;0.80;;
11054;SDS011;5580;50.106;8.702;2024-02-04T06:22:00;1.10;;;0.87;;
11054;SDS011;5580;50.106;8.702;2024-02-04T06:24:26;0.90;;;0.80;;
11054;SDS011;5580;50.106;8.702;2024-02-04T06:26:51;0.73;;;0.73;;
11054;SDS011;5580;50.106;8.702;2024-02-04T06:29:17;0.83;;;0.83;;
11054;SDS011;5580;50.106;8.702;2024-02-04T06:31:48;0.60;;;0.60;;
11054;SDS011;5580;50.106;8.702;2024-02-04T06:34:14;0.93;;;0.90;;
11054;SDS011;5580;50.106;8.702;2024-02-04T06:36:43;1.00;;;1.00;;
11054;SDS011;5580;50.106;8.702;2024-02-04T06:39:11;1.20;;;0.93;;
11054;SDS011;5580;50.106;8.702;2024-02-04T06:41:37;0.90;;;0.90;;
11054;SDS011;5580;50.106;8.702;2024-02-04T06:44:03;3.07;;;1.10;;
11054;SDS011;5580;50.106;8.702;2024-02-04T06:46:31;1.10;;;1.00;;
11054;SDS011;5580;50.106;8.702;2024-02-04T06:48:57;1.10;;;1.00;;
11054;SDS011;5580;50.106;8.702;2024-02-04T06:51:23;1.13;;;1.00;;
11054;SDS011;5580;50.106;8.702;2024-02-04T06:53:48;0.73;;;0.60;;
11054;SDS011;5580;50.106;8.702;2024-02-04T06:56:14;2.60;;;0.80;;
11054;SDS011;5580;50.106;8.702;2024-02-04T06:58:40;0.73;;;0.73;;
11054;SDS011;5580;50.106;8.702;2024-02-04T07:01:06;1.60;;;0.97;;
11054;SDS011;5580;50.106;8.702;2024-02-04T07:03:32;1.30;;;1.20;;
11054;SDS011;5580;50.106;8.702;2024-02-04T07:05:58;1.77;;;1.07;;
11054;SDS011;5580;50.106;8.702;2024-02-04T07:08:24;2.10;;;0.83;;
11054;SDS011;5580;50.106;8.702;2024-02-04T07:10:50;2.70;;;1.07;;
11054;SDS011;5580;50.106;8.702;2024-02-04T07:13:16;0.87;;;0.80;;
11054;SDS011;5580;50.106;8.702;2024-02-04T07:15:42;1.30;;;1.00;;
11054;SDS011;5580;50.106;8.702;2024-02-04T07:18:08;1.20;;;1.10;;
11054;SDS011;5580;50.106;8.702;2024-02-04T07:20:33;1.93;;;1.07;;
11054;SDS011;5580;50.106;8.702;2024-02-04T07:22:59;1.00;;;0.90;;
11054;SDS011;5580;50.106;8.702;2024-02-04T07:25:24;2.30;;;1.27;;
11054;SDS011;5580;50.106;8.702;2024-02-04T07:27:50;0.90;;;0.90;;
11054;SDS011;5580;50.106;8.702;2024-02-04T07:30:16;0.77;;;0.77;;
11054;SDS011;5580;50.106;8.702;2024-02-04T07:32:42;1.30;;;0.90;;
11054;SDS011;5580;50.106;8.702;2024-02-04T07:35:07;0.60;;;0.60;;
11054;SDS011;5580;50.106;8.702;2024-02-04T07:37:34;0.80;;;0.80;;
11054;SDS011;5580;50.106;8.702;2024-02-04T07:40:00;1.17;;;1.10;;
11054;SDS011;5580;50.106;8.702;2024-02-04T07:42:26;1.83;;;1.10;;
11054;SDS011;5580;50.106;8.702;2024-02-04T07:44:52;0.70;;;0.70;;
11054;SDS011;5580;50.106;8.702;2024-02-04T07:47:18;0.77;;;0.77;;
11054;SDS011;5580;50.106;8.702;2024-02-04T07:49:46;0.80;;;0.80;;
11054;SDS011;5580;50.106;8.702;2024-02-04T07:52:15;1.90;;;1.00;;
11054;SDS011;5580;50.106;8.702;2024-02-04T07:54:40;1.03;;;1.00;;
11054;SDS011;5580;50.106;8.702;2024-02-04T07:57:06;1.20;;;1.00;;
11054;SDS011;5580;50.106;8.702;2024-02-04T07:59:32;1.20;;;1.03;;
11054;SDS011;5580;50.106;8.702;2024-02-04T08:01:58;1.50;;;1.40;;
11054;SDS011;5580;50.106;8.702;2024-02-04T08:04:23;3.47;;;2.67;;
11054;SDS011;5580;50.106;8.702;2024-02-04T08:06:49;0.80;;;0.80;;
11054;SDS011;5580;50.106;8.702;2024-02-04T08:09:14;1.00;;;1.00;;
11054;SDS011;5580;50.106;8.702;2024-02-04T08:11:40;1.93;;;1.00;;
11054;SDS011;5580;50.106;8.702;2024-02-04T08:14:06;1.00;;;0.90;;
11054;SDS011;5580;50.106;8.702;2024-02-04T08:16:31;0.87;;;0.87;;
11054;SDS011;5580;50.106;8.702;2024-02-04T08:18:57;1.03;;;0.93;;
11054;SDS011;5580;50.106;8.702;2024-02-04T08:21:23;1.00;;;1.00;;
11054;SDS011;5580;50.106;8.702;2024-02-04T08:23:49;1.53;;;1.17;;
11054;SDS011;5580;50.106;8.702;2024-02-04T08:26:14;1.27;;;1.17;;
11054;SDS011;5580;50.106;8.702;2024-02-04T08:28:40;1.13;;;1.13;;
11054;SDS011;5580;50.106;8.702;2024-02-04T08:31:06;1.37;;;1.17;;
11054;SDS011;5580;50.106;8.702;2024-02-04T08:33:31;1.00;;;1.00;;
11054;SDS011;5580;50.106;8.702;2024-02-04T08:35:57;1.03;;;0.97;;
11054;SDS011;5580;50.106;8.702;2024-02-04T08:38:22;1.20;;;1.20;;
11054;SDS011;5580;50.106;8.702;2024-02-04T08:40:48;2.13;;;1.20;;
11054;SDS011;5580;50.106;8.702;2024-02-04T08:43:13;1.97;;;1.80;;
11054;SDS011;5580;50.106;8.702;2024-02-04T08:45:39;1.40;;;1.30;;
11054;SDS011;5580;50.106;8.702;2024-02-04T08:48:05;1.60;;;1.33;;
11054;SDS011;5580;50.106;8.702;2024-02-04T08:50:30;0.70;;;0.70;;
11054;SDS011;5580;50.106;8.702;2024-02-04T08:52:56;1.10;;;1.10;;
11054;SDS011;5580;50.106;8.702;2024-02-04T08:55:22;1.43;;;1.43;;
11054;SDS011;5580;50.106;8.702;2024-02-04T08:57:47;2.00;;;1.10;;
11054;SDS011;5580;50.106;8.702;2024-02-04T09:00:13;1.13;;;1.07;;
11054;SDS011;5580;50.106;8.702;2024-02-04T09:02:40;2.67;;;1.40;;
11054;SDS011;5580;50.106;8.702;2024-02-04T09:05:06;1.50;;;1.40;;
11054;SDS011;5580;50.106;8.702;2024-02-04T09:07:32;1.13;;;1.10;;
11054;SDS011;5580;50.106;8.702;2024-02-04T09:09:57;1.00;;;1.00;;
11054;SDS011;5580;50.106;8.702;2024-02-04T09:12:23;1.30;;;1.10;;
11054;SDS011;5580;50.106;8.702;2024-02-04T09:14:49;1.00;;;1.00;;
11054;SDS011;5580;50.106;8.702;2024-02-04T09:17:14;0.97;;;0.97;;
11054;SDS011;5580;50.106;8.702;2024-02-04T09:19:40;0.93;;;0.90;;
11054;SDS011;5580;50.106;8.702;2024-02-04T09:22:05;0.80;;;0.80;;
11054;SDS011;5580;50.106;8.702;2024-02-04T09:24:31;2.03;;;0.83;;
11054;SDS011;5580;50.106;8.702;2024-02-04T09:26:57;2.73;;;1.10;;
11054;SDS011;5580;50.106;8.702;2024-02-04T09:29:22;1.73;;;1.03;;
11054;SDS011;5580;50.106;8.702;2024-02-04T09:31:48;1.13;;;1.13;;
11054;SDS011;5580;50.106;8.702;2024-02-04T09:34:18;1.03;;;1.03;;
11054;SDS011;5580;50.106;8.702;2024-02-04T09:36:44;1.40;;;0.93;;
11054;SDS011;5580;50.106;8.702;2024-02-04T09:39:10;1.10;;;1.10;;
11054;SDS011;5580;50.106;8.702;2024-02-04T09:41:35;1.03;;;0.97;;
11054;SDS011;5580;50.106;8.702;2024-02-04T09:44:01;1.03;;;1.03;;
11054;SDS011;5580;50.106;8.702;2024-02-04T09:46:28;1.20;;;1.10;;
11054;SDS011;5580;50.106;8.702;2024-02-04T09:48:54;1.20;;;1.03;;
11054;SDS011;5580;50.106;8.702;2024-02-04T09:51:20;0.93;;;0.93;;
11054;SDS011;5580;50.106;8.702;2024-02-04T09:53:46;1.53;;;1.10;;
11054;SDS011;5580;50.106;8.702;2024-02-04T09:56:17;1.90;;;0.90;;
11054;SDS011;5580;50.106;8.702;2024-02-04T09:58:43;1.00;;;1.00;;
11054;SDS011;5580;50.106;8.702;2024-02-04T10:01:10;0.97;;;0.87;;
11054;SDS011;5580;50.106;8.702;2024-02-04T10:03:36;1.20;;;1.10;;
11054;SDS011;5580;50.106;8.702;2024-02-04T10:06:02;1.17;;;1.00;;
11054;SDS011;5580;50.106;8.702;2024-02-04T10:08:28;1.27;;;1.20;;
11054;SDS011;5580;50.106;8.702;2024-02-04T10:10:54;0.87;;;0.87;;
11054;SDS011;5580;50.106;8.702;2024-02-04T10:13:20;1.70;;;1.10;;
11054;SDS011;5580;50.106;8.702;2024-02-04T10:15:47;0.83;;;0.83;;
11054;SDS011;5580;50.106;8.702;2024-02-04T10:18:13;1.17;;;1.13;;
11054;SDS011;5580;50.106;8.702;2024-02-04T10:20:38;1.40;;;1.30;;
11054;SDS011;5580;50.106;8.702;2024-02-04T10:23:04;1.93;;;1.17;;
11054;SDS011;5580;50.106;8.702;2024-02-04T10:25:30;1.53;;;1.33;;
11054;SDS011;5580;50.106;8.702;2024-02-04T10:27:55;1.40;;;1.20;;
11054;SDS011;5580;50.106;8.702;2024-02-04T10:30:23;0.93;;;0.93;;
11054;SDS011;5580;50.106;8.702;2024-02-04T10:32:52;1.33;;;1.23;;
11054;SDS011;5580;50.106;8.702;2024-02-04T10:35:21;1.40;;;1.30;;
11054;SDS011;5580;50.106;8.702;2024-02-04T10:37:48;2.00;;;1.07;;
11054;SDS011;5580;50.106;8.702;2024-02-04T10:40:15;1.40;;;1.30;;
11054;SDS011;5580;50.106;8.702;2024-02-04T10:42:42;1.70;;;1.03;;
11054;SDS011;5580;50.106;8.702;2024-02-04T10:45:09;1.77;;;1.07;;
11054;SDS011;5580;50.106;8.702;2024-02-04T10:47:36;1.83;;;1.00;;
11054;SDS011;5580;50.106;8.702;2024-02-04T10:50:03;1.10;;;1.00;;
11054;SDS011;5580;50.106;8.702;2024-02-04T10:52:31;1.23;;;0.90;;
11054;SDS011;5580;50.106;8.702;2024-02-04T10:55:03;1.50;;;1.10;;
11054;SDS011;5580;50.106;8.702;2024-02-04T10:57:33;0.93;;;0.93;;
11054;SDS011;5580;50.106;8.702;2024-02-04T11:00:00;1.33;;;1.20;;
11054;SDS011;5580;50.106;8.702;2024-02-04T11:02:29;1.33;;;1.23;;
11054;SDS011;5580;50.106;8.702;2024-02-04T11:04:56;1.20;;;1.10;;
11054;SDS011;5580;50.106;8.702;2024-02-04T11:07:23;1.57;;;1.53;;
11054;SDS011;5580;50.106;8.702;2024-02-04T11:09:50;1.53;;;1.43;;
11054;SDS011;5580;50.106;8.702;2024-02-04T11:12:17;1.70;;;1.23;;
11054;SDS011;5580;50.106;8.702;2024-02-04T11:14:46;1.50;;;1.50;;
11054;SDS011;5580;50.106;8.702;2024-02-04T11:18:23;1.20;;;1.07;;
11054;SDS011;5580;50.106;8.702;2024-02-04T11:26:01;1.73;;;1.63;;
11054;SDS011;5580;50.106;8.702;2024-02-04T11:28:29;1.60;;;1.50;;
11054;SDS011;5580;50.106;8.702;2024-02-04T11:30:56;1.57;;;1.47;;
11054;SDS011;5580;50.106;8.702;2024-02-04T11:33:22;2.80;;;1.50;;
11054;SDS011;5580;50.106;8.702;2024-02-04T11:38:32;1.43;;;1.30;;
11054;SDS011;5580;50.106;8.702;2024-02-04T11:41:02;1.20;;;1.20;;
11054;SDS011;5580;50.106;8.702;2024-02-04T11:43:28;1.70;;;1.63;;
11054;SDS011;5580;50.106;8.702;2024-02-04T11:45:54;1.50;;;1.40;;
11054;SDS011;5580;50.106;8.702;2024-02-04T11:48:19;2.60;;;1.70;;
11054;SDS011;5580;50.106;8.702;2024-02-04T11:50:54;4.33;;;1.87;;
11054;SDS011;5580;50.106;8.702;2024-02-04T11:53:19;2.13;;;1.50;;
11054;SDS011;5580;50.106;8.702;2024-02-04T11:55:45;1.73;;;1.63;;
11054;SDS011;5580;50.106;8.702;2024-02-04T11:58:11;1.77;;;1.50;;
11054;SDS011;5580;50.106;8.702;2024-02-04T12:00:37;2.50;;;2.10;;
11054;SDS011;5580;50.106;8.702;2024-02-04T12:03:07;1.47;;;1.30;;
11054;SDS011;5580;50.106;8.702;2024-02-04T12:05:34;1.87;;;1.77;;
11054;SDS011;5580;50.106;8.702;2024-02-04T12:08:01;2.67;;;1.70;;
11054;SDS011;5580;50.106;8.702;2024-02-04T12:10:31;2.20;;;2.10;;
11054;SDS011;5580;50.106;8.702;2024-02-04T12:12:58;1.50;;;1.40;;
11054;SDS011;5580;50.106;8.702;2024-02-04T12:15:26;2.50;;;1.50;;
11054;SDS011;5580;50.106;8.702;2024-02-04T12:17:54;1.93;;;1.73;;
11054;SDS011;5580;50.106;8.702;2024-02-04T12:20:20;1.70;;;1.60;;
11054;SDS011;5580;50.106;8.702;2024-02-04T12:22:46;1.90;;;1.80;;
11054;SDS011;5580;50.106;8.702;2024-02-04T12:25:13;1.73;;;1.63;;
11054;SDS011;5580;50.106;8.702;2024-02-04T12:27:39;2.30;;;1.70;;
11054;SDS011;5580;50.106;8.702;2024-02-04T12:30:05;2.03;;;1.93;;
11054;SDS011;5580;50.106;8.702;2024-02-04T12:32:32;1.93;;;1.80;;
11054;SDS011;5580;50.106;8.702;2024-02-04T12:34:57;3.13;;;2.83;;
11054;SDS011;5580;50.106;8.702;2024-02-04T12:37:23;4.47;;;3.40;;
11054;SDS011;5580;50.106;8.702;2024-02-04T12:39:51;4.13;;;3.73;;
11054;SDS011;5580;50.106;8.702;2024-02-04T12:42:16;2.20;;;2.10;;
11054;SDS011;5580;50.106;8.702;2024-02-04T12:44:49;2.73;;;1.90;;
11054;SDS011;5580;50.106;8.702;2024-02-04T12:47:18;2.00;;;1.90;;
11054;SDS011;5580;50.106;8.702;2024-02-04T12:49:45;1.60;;;1.50;;
11054;SDS011;5580;50.106;8.702;2024-02-04T12:52:10;1.40;;;1.30;;
11054;SDS011;5580;50.106;8.702;2024-02-04T12:54:43;1.80;;;1.70;;
11054;SDS011;5580;50.106;8.702;2024-02-04T12:57:09;2.50;;;1.80;;
11054;SDS011;5580;50.106;8.702;2024-02-04T12:59:36;2.70;;;2.13;;
11054;SDS011;5580;50.106;8.702;2024-02-04T13:02:08;2.03;;;1.93;;
11054;SDS011;5580;50.106;8.702;2024-02-04T13:04:37;1.80;;;1.70;;
11054;SDS011;5580;50.106;8.702;2024-02-04T13:07:10;3.63;;;2.50;;
11054;SDS011;5580;50.106;8.702;2024-02-04T13:09:38;2.23;;;1.67;;
11054;SDS011;5580;50.106;8.702;2024-02-04T13:12:10;2.60;;;2.10;;
11054;SDS011;5580;50.106;8.702;2024-02-04T13:14:36;3.37;;;2.17;;
11054;SDS011;5580;50.106;8.702;2024-02-04T13:17:03;2.17;;;2.03;;
11054;SDS011;5580;50.106;8.702;2024-02-04T13:19:35;3.13;;;1.93;;
11054;SDS011;5580;50.106;8.702;2024-02-04T13:22:02;2.60;;;2.17;;
11054;SDS011;5580;50.106;8.702;2024-02-04T13:24:29;2.00;;;1.90;;
11054;SDS011;5580;50.106;8.702;2024-02-04T13:26:55;2.43;;;2.13;;
11054;SDS011;5580;50.106;8.702;2024-02-04T13:29:21;2.50;;;2.30;;
11054;SDS011;5580;50.106;8.702;2024-02-04T13:31:46;2.63;;;2.10;;
11054;SDS011;5580;50.106;8.702;2024-02-04T13:34:12;2.63;;;2.43;;
11054;SDS011;5580;50.106;8.702;2024-02-04T13:36:38;2.73;;;2.53;;
11054;SDS011;5580;50.106;8.702;2024-02-04T13:39:03;2.80;;;2.30;;
11054;SDS011;5580;50.106;8.702;2024-02-04T13:41:30;2.77;;;2.57;;
11054;SDS011;5580;50.106;8.702;2024-02-04T13:43:56;2.83;;;2.33;;
11054;SDS011;5580;50.106;8.702;2024-02-04T13:46:22;2.67;;;2.47;;
11054;SDS011;5580;50.106;8.702;2024-02-04T13:48:48;2.57;;;2.37;;
11054;SDS011;5580;50.106;8.702;2024-02-04T13:51:13;2.20;;;2.00;;
11054;SDS011;5580;50.106;8.702;2024-02-04T13:53:39;2.30;;;2.20;;
11054;SDS011;5580;50.106;8.702;2024-02-04T13:56:05;1.83;;;1.73;;
11054;SDS011;5580;50.106;8.702;2024-02-04T13:58:30;2.83;;;2.20;;
11054;SDS011;5580;50.106;8.702;2024-02-04T14:00:56;3.20;;;2.17;;
11054;SDS011;5580;50.106;8.702;2024-02-04T14:03:22;2.03;;;1.93;;
11054;SDS011;5580;50.106;8.702;2024-02-04T14:05:47;1.90;;;1.80;;
11054;SDS011;5580;50.106;8.702;2024-02-04T14:08:14;2.30;;;2.10;;
11054;SDS011;5580;50.106;8.702;2024-02-04T14:10:40;2.50;;;1.77;;
11054;SDS011;5580;50.106;8.702;2024-02-04T14:13:06;1.90;;;1.80;;
11054;SDS011;5580;50.106;8.702;2024-02-04T14:15:31;2.10;;;1.73;;
11054;SDS011;5580;50.106;8.702;2024-02-04T14:17:57;2.10;;;1.90;;
11054;SDS011;5580;50.106;8.702;2024-02-04T14:20:24;4.00;;;2.43;;
11054;SDS011;5580;50.106;8.702;2024-02-04T14:22:50;1.93;;;1.60;;
11054;SDS011;5580;50.106;8.702;2024-02-04T14:25:16;2.70;;;1.90;;
11054;SDS011;5580;50.106;8.702;2024-02-04T14:27:41;1.97;;;1.77;;
11054;SDS011;5580;50.106;8.702;2024-02-04T14:30:07;1.63;;;1.53;;
11054;SDS011;5580;50.106;8.702;2024-02-04T14:32:33;1.50;;;1.50;;
11054;SDS011;5580;50.106;8.702;2024-02-04T14:34:59;1.70;;;1.60;;
11054;SDS011;5580;50.106;8.702;2024-02-04T14:37:25;1.63;;;1.53;;
11054;SDS011;5580;50.106;8.702;2024-02-04T14:39:50;1.80;;;1.70;;
11054;SDS011;5580;50.106;8.702;2024-02-04T14:42:16;1.90;;;1.60;;
11054;SDS011;5580;50.106;8.702;2024-02-04T14:44:43;1.50;;;1.40;;
11054;SDS011;5580;50.106;8.702;2024-02-04T14:47:09;1.67;;;1.33;;
11054;SDS011;5580;50.106;8.702;2024-02-04T14:49:36;2.17;;;1.80;;
11054;SDS011;5580;50.106;8.702;2024-02-04T14:52:02;1.60;;;1.50;;
11054;SDS011;5580;50.106;8.702;2024-02-04T14:54:27;1.47;;;1.37;;
11054;SDS011;5580;50.106;8.702;2024-02-04T14:56:53;1.77;;;1.50;;
11054;SDS011;5580;50.106;8.702;2024-02-04T14:59:19;3.40;;;1.80;;
11054;SDS011;5580;50.106;8.702;2024-02-04T15:01:44;2.40;;;1.67;;
11054;SDS011;5580;50.106;8.702;2024-02-04T15:04:14;1.50;;;1.40;;
11054;SDS011;5580;50.106;8.702;2024-02-04T15:06:40;2.23;;;1.70;;
11054;SDS011;5580;50.106;8.702;2024-02-04T15:09:06;2.67;;;1.40;;
11054;SDS011;5580;50.106;8.702;2024-02-04T15:11:32;0.80;;;0.80;;